sensor_id;sensor_type;location;lat;lon;timestamp;pressure;altitude;pressure_sealevel;temperature;humidity
42169;BME280;27838;43.858;25.974;2023-03-14T00:00:12;101430.03;;;10.20;37.44
42169;BME280;27838;43.858;25.974;2023-03-14T00:02:40;101424.00;;;10.23;37.34
42169;BME280;27838;43.858;25.974;2023-03-14T00:05:07;101424.00;;;10.23;36.87
42169;BME280;27838;43.858;25.974;2023-03-14T00:07:38;101423.19;;;10.28;36.83
42169;BME280;27838;43.858;25.974;2023-03-14T00:10:09;101422.47;;;10.37;36.83
42169;BME280;27838;43.858;25.974;2023-03-14T00:12:36;101426.75;;;10.33;37.12
42169;BME280;27838;43.858;25.974;2023-03-14T00:15:03;101424.22;;;10.39;36.83
42169;BME280;27838;43.858;25.974;2023-03-14T00:17:32;101424.34;;;10.49;36.99
42169;BME280;27838;43.858;25.974;2023-03-14T00:19:59;101409.56;;;10.48;36.78
42169;BME280;27838;43.858;25.974;2023-03-14T00:22:31;101406.09;;;10.49;37.04
42169;BME280;27838;43.858;25.974;2023-03-14T00:24:57;101409.56;;;10.48;36.99
42169;BME280;27838;43.858;25.974;2023-03-14T00:27:24;101396.53;;;10.49;36.59
42169;BME280;27838;43.858;25.974;2023-03-14T00:29:50;101399.22;;;10.54;36.59
42169;BME280;27838;43.858;25.974;2023-03-14T00:32:17;101403.59;;;10.58;36.60
42169;BME280;27838;43.858;25.974;2023-03-14T00:34:43;101394.78;;;10.47;36.96
42169;BME280;27838;43.858;25.974;2023-03-14T00:37:10;101392.09;;;10.41;36.79
42169;BME280;27838;43.858;25.974;2023-03-14T00:39:36;101387.69;;;10.33;36.83
42169;BME280;27838;43.858;25.974;2023-03-14T00:42:03;101379.72;;;10.24;36.91
42169;BME280;27838;43.858;25.974;2023-03-14T00:44:29;101374.44;;;10.19;37.31
42169;BME280;27838;43.858;25.974;2023-03-14T00:46:57;101369.16;;;10.10;37.11
42169;BME280;27838;43.858;25.974;2023-03-14T00:49:23;101364.81;;;10.12;36.84
42169;BME280;27838;43.858;25.974;2023-03-14T00:51:50;101362.25;;;10.15;37.28
42169;BME280;27838;43.858;25.974;2023-03-14T00:54:18;101362.28;;;10.20;37.30
42169;BME280;27838;43.858;25.974;2023-03-14T00:56:45;101359.72;;;10.23;36.65
42169;BME280;27838;43.858;25.974;2023-03-14T00:59:11;101366.72;;;10.27;36.55
42169;BME280;27838;43.858;25.974;2023-03-14T01:01:39;101358.03;;;10.27;37.16
42169;BME280;27838;43.858;25.974;2023-03-14T01:04:07;101354.69;;;10.35;36.52
42169;BME280;27838;43.858;25.974;2023-03-14T01:06:33;101339.94;;;10.37;36.80
42169;BME280;27838;43.858;25.974;2023-03-14T01:09:00;101335.63;;;10.41;36.70
42169;BME280;27838;43.858;25.974;2023-03-14T01:11:30;101331.25;;;10.37;36.44
42169;BME280;27838;43.858;25.974;2023-03-14T01:13:58;101331.19;;;10.32;36.77
42169;BME280;27838;43.858;25.974;2023-03-14T01:16:26;101329.19;;;10.08;37.17
42169;BME280;27838;43.858;25.974;2023-03-14T01:18:53;101336.09;;;10.08;36.67
42169;BME280;27838;43.858;25.974;2023-03-14T01:21:21;101333.47;;;10.06;36.74
42169;BME280;27838;43.858;25.974;2023-03-14T01:23:49;101338.75;;;10.11;36.44
42169;BME280;27838;43.858;25.974;2023-03-14T01:26:19;101330.97;;;10.14;36.90
42169;BME280;27838;43.858;25.974;2023-03-14T01:28:47;101337.06;;;10.14;36.78
42169;BME280;27838;43.858;25.974;2023-03-14T01:31:14;101337.09;;;10.17;36.47
42169;BME280;27838;43.858;25.974;2023-03-14T01:33:41;101348.41;;;10.21;36.67
42169;BME280;27838;43.858;25.974;2023-03-14T01:36:09;101346.69;;;10.23;35.97
42169;BME280;27838;43.858;25.974;2023-03-14T01:38:37;101337.13;;;10.20;36.18
42169;BME280;27838;43.858;25.974;2023-03-14T01:41:06;101328.41;;;10.17;35.83
42169;BME280;27838;43.858;25.974;2023-03-14T01:43:33;101331.03;;;10.17;36.12
42169;BME280;27838;43.858;25.974;2023-03-14T01:49:03;101329.97;;;10.04;36.53
42169;BME280;27838;43.858;25.974;2023-03-14T01:51:42;101330.84;;;10.03;36.30
42169;BME280;27838;43.858;25.974;2023-03-14T01:54:31;101326.56;;;10.10;36.07
42169;BME280;27838;43.858;25.974;2023-03-14T01:57:08;101320.50;;;10.11;35.85
42169;BME280;27838;43.858;25.974;2023-03-14T01:59:38;101318.00;;;10.17;36.07
42169;BME280;27838;43.858;25.974;2023-03-14T02:02:07;101323.19;;;10.15;35.55
42169;BME280;27838;43.858;25.974;2023-03-14T02:04:36;101318.78;;;10.13;35.72
42169;BME280;27838;43.858;25.974;2023-03-14T02:07:24;101322.97;;;9.98;36.06
42169;BME280;27838;43.858;25.974;2023-03-14T02:09:54;101324.44;;;9.76;36.38
42169;BME280;27838;43.858;25.974;2023-03-14T02:12:22;101322.63;;;9.71;36.12
42169;BME280;27838;43.858;25.974;2023-03-14T02:14:49;101315.38;;;9.48;36.59
42169;BME280;27838;43.858;25.974;2023-03-14T02:17:17;101337.25;;;9.62;36.52
42169;BME280;27838;43.858;25.974;2023-03-14T02:20:34;101335.56;;;9.66;36.33
42169;BME280;27838;43.858;25.974;2023-03-14T02:22:42;101337.41;;;9.72;35.72
42169;BME280;27838;43.858;25.974;2023-03-14T02:25:20;101339.22;;;9.77;35.88
42169;BME280;27838;43.858;25.974;2023-03-14T02:27:51;101336.56;;;9.74;35.70
42169;BME280;27838;43.858;25.974;2023-03-14T02:30:20;101336.66;;;9.80;35.82
42169;BME280;27838;43.858;25.974;2023-03-14T02:32:51;101335.78;;;9.81;35.75
42169;BME280;27838;43.858;25.974;2023-03-14T02:35:21;101335.84;;;9.86;35.52
42169;BME280;27838;43.858;25.974;2023-03-14T02:37:53;101337.56;;;9.87;35.98
42169;BME280;27838;43.858;25.974;2023-03-14T02:40:21;101318.44;;;9.82;35.09
42169;BME280;27838;43.858;25.974;2023-03-14T02:42:48;101341.94;;;9.88;35.73
42169;BME280;27838;43.858;25.974;2023-03-14T02:47:49;101345.47;;;9.93;35.45
42169;BME280;27838;43.858;25.974;2023-03-14T02:50:24;101344.59;;;9.91;35.34
42169;BME280;27838;43.858;25.974;2023-03-14T02:52:52;101349.69;;;9.82;35.83
42169;BME280;27838;43.858;25.974;2023-03-14T02:55:22;101346.97;;;9.74;36.40
42169;BME280;27838;43.858;25.974;2023-03-14T02:57:50;101340.84;;;9.71;36.58
42169;BME280;27838;43.858;25.974;2023-03-14T03:00:17;101344.28;;;9.70;36.51
42169;BME280;27838;43.858;25.974;2023-03-14T03:02:44;101338.25;;;9.71;35.74
42169;BME280;27838;43.858;25.974;2023-03-14T03:05:11;101334.81;;;9.72;35.61
42169;BME280;27838;43.858;25.974;2023-03-14T03:07:38;101325.22;;;9.71;35.50
42169;BME280;27838;43.858;25.974;2023-03-14T03:10:04;101313.06;;;9.68;35.58
42169;BME280;27838;43.858;25.974;2023-03-14T03:12:31;101327.00;;;9.72;35.38
42169;BME280;27838;43.858;25.974;2023-03-14T03:14:58;101316.41;;;9.59;36.26
42169;BME280;27838;43.858;25.974;2023-03-14T03:17:24;101316.28;;;9.52;36.61
42169;BME280;27838;43.858;25.974;2023-03-14T03:19:51;101325.91;;;9.57;36.18
42169;BME280;27838;43.858;25.974;2023-03-14T03:22:17;101323.28;;;9.54;36.71
42169;BME280;27838;43.858;25.974;2023-03-14T03:24:44;101323.28;;;9.54;36.72
42169;BME280;27838;43.858;25.974;2023-03-14T03:27:10;101331.03;;;9.50;36.99
42169;BME280;27838;43.858;25.974;2023-03-14T03:29:37;101327.56;;;9.51;36.51
42169;BME280;27838;43.858;25.974;2023-03-14T03:32:03;101325.78;;;9.48;36.57
42169;BME280;27838;43.858;25.974;2023-03-14T03:34:30;101317.16;;;9.49;36.91
42169;BME280;27838;43.858;25.974;2023-03-14T03:36:57;101314.50;;;9.46;36.47
42169;BME280;27838;43.858;25.974;2023-03-14T03:39:23;101319.78;;;9.54;35.87
42169;BME280;27838;43.858;25.974;2023-03-14T03:41:50;101313.75;;;9.56;34.83
42169;BME280;27838;43.858;25.974;2023-03-14T03:44:16;101300.84;;;9.64;34.33
42169;BME280;27838;43.858;25.974;2023-03-14T03:46:43;101290.50;;;9.69;34.16
42169;BME280;27838;43.858;25.974;2023-03-14T03:49:09;101286.09;;;9.63;34.23
42169;BME280;27838;43.858;25.974;2023-03-14T03:51:36;101274.66;;;9.52;33.61
42169;BME280;27838;43.858;25.974;2023-03-14T03:54:02;101273.84;;;9.54;33.79
42169;BME280;27838;43.858;25.974;2023-03-14T03:56:29;101279.06;;;9.56;34.08
42169;BME280;27838;43.858;25.974;2023-03-14T03:58:57;101284.34;;;9.62;33.05
42169;BME280;27838;43.858;25.974;2023-03-14T04:01:23;101278.28;;;9.61;33.14
42169;BME280;27838;43.858;25.974;2023-03-14T04:03:50;101277.41;;;9.62;32.97
42169;BME280;27838;43.858;25.974;2023-03-14T04:06:16;101269.56;;;9.59;33.46
42169;BME280;27838;43.858;25.974;2023-03-14T04:08:43;101262.59;;;9.57;32.83
42169;BME280;27838;43.858;25.974;2023-03-14T04:11:09;101257.41;;;9.58;33.55
42169;BME280;27838;43.858;25.974;2023-03-14T04:13:36;101261.75;;;9.59;33.35
42169;BME280;27838;43.858;25.974;2023-03-14T04:16:03;101264.22;;;9.50;33.38
42169;BME280;27838;43.858;25.974;2023-03-14T04:18:29;101243.19;;;9.35;33.41
42169;BME280;27838;43.858;25.974;2023-03-14T04:20:57;101246.63;;;9.31;33.83
42169;BME280;27838;43.858;25.974;2023-03-14T04:23:24;101252.69;;;9.30;33.62
42169;BME280;27838;43.858;25.974;2023-03-14T04:25:52;101240.59;;;9.33;33.46
42169;BME280;27838;43.858;25.974;2023-03-14T04:28:19;101234.50;;;9.33;32.94
42169;BME280;27838;43.858;25.974;2023-03-14T04:30:45;101234.47;;;9.31;33.21
42169;BME280;27838;43.858;25.974;2023-03-14T04:33:12;101231.72;;;9.19;33.35
42169;BME280;27838;43.858;25.974;2023-03-14T04:35:43;101232.50;;;9.13;33.56
42169;BME280;27838;43.858;25.974;2023-03-14T04:38:10;101234.28;;;9.14;33.88
42169;BME280;27838;43.858;25.974;2023-03-14T04:40:37;101231.66;;;9.13;33.76
42169;BME280;27838;43.858;25.974;2023-03-14T04:43:04;101225.38;;;9.00;33.61
42169;BME280;27838;43.858;25.974;2023-03-14T04:45:31;101220.38;;;9.14;33.69
42169;BME280;27838;43.858;25.974;2023-03-14T04:47:57;101221.94;;;9.67;32.40
42169;BME280;27838;43.858;25.974;2023-03-14T04:50:24;101211.72;;;10.79;31.08
42169;BME280;27838;43.858;25.974;2023-03-14T04:52:50;101207.94;;;12.12;29.22
42169;BME280;27838;43.858;25.974;2023-03-14T04:55:17;101209.72;;;12.60;28.71
42169;BME280;27838;43.858;25.974;2023-03-14T04:57:43;101211.22;;;13.63;27.28
42169;BME280;27838;43.858;25.974;2023-03-14T05:00:10;101216.25;;;13.94;26.78
42169;BME280;27838;43.858;25.974;2023-03-14T05:02:37;101234.50;;;14.12;26.53
42169;BME280;27838;43.858;25.974;2023-03-14T05:05:04;101239.69;;;14.22;26.28
42169;BME280;27838;43.858;25.974;2023-03-14T05:07:31;101237.06;;;14.17;26.19
42169;BME280;27838;43.858;25.974;2023-03-14T05:09:57;101246.00;;;13.93;26.13
42169;BME280;27838;43.858;25.974;2023-03-14T05:12:24;101250.47;;;13.69;26.95
42169;BME280;27838;43.858;25.974;2023-03-14T05:14:50;101256.75;;;13.03;27.61
42169;BME280;27838;43.858;25.974;2023-03-14T05:17:17;101260.25;;;12.78;27.97
42169;BME280;27838;43.858;25.974;2023-03-14T05:19:44;101257.63;;;12.56;28.69
42169;BME280;27838;43.858;25.974;2023-03-14T05:22:11;101262.84;;;12.47;29.21
42169;BME280;27838;43.858;25.974;2023-03-14T05:24:37;101255.00;;;12.35;28.84
42169;BME280;27838;43.858;25.974;2023-03-14T05:27:04;101243.69;;;12.22;29.71
42169;BME280;27838;43.858;25.974;2023-03-14T05:29:31;101244.53;;;12.16;29.75
42169;BME280;27838;43.858;25.974;2023-03-14T05:31:57;101245.38;;;12.06;30.14
42169;BME280;27838;43.858;25.974;2023-03-14T05:34:24;101240.13;;;11.94;30.66
42169;BME280;27838;43.858;25.974;2023-03-14T05:36:50;101244.41;;;11.84;30.43
42169;BME280;27838;43.858;25.974;2023-03-14T05:39:17;101240.91;;;11.71;30.94
42169;BME280;27838;43.858;25.974;2023-03-14T05:41:44;101239.13;;;11.59;32.41
42169;BME280;27838;43.858;25.974;2023-03-14T05:44:10;101248.69;;;11.57;33.15
42169;BME280;27838;43.858;25.974;2023-03-14T05:46:37;101239.06;;;11.45;33.99
42169;BME280;27838;43.858;25.974;2023-03-14T05:49:03;101245.13;;;11.44;33.93
42169;BME280;27838;43.858;25.974;2023-03-14T05:51:30;101241.63;;;11.34;34.10
42169;BME280;27838;43.858;25.974;2023-03-14T05:53:56;101232.00;;;11.30;33.40
42169;BME280;27838;43.858;25.974;2023-03-14T05:56:23;101238.13;;;11.37;33.07
42169;BME280;27838;43.858;25.974;2023-03-14T05:58:49;101225.97;;;11.42;31.58
42169;BME280;27838;43.858;25.974;2023-03-14T06:01:16;101233.81;;;11.42;30.85
42169;BME280;27838;43.858;25.974;2023-03-14T06:03:42;101225.06;;;11.36;30.83
42169;BME280;27838;43.858;25.974;2023-03-14T06:06:09;101233.81;;;11.38;30.76
42169;BME280;27838;43.858;25.974;2023-03-14T06:08:35;101225.94;;;11.33;30.76
42169;BME280;27838;43.858;25.974;2023-03-14T06:11:03;101225.06;;;11.31;30.90
42169;BME280;27838;43.858;25.974;2023-03-14T06:13:30;101225.94;;;11.33;31.18
42169;BME280;27838;43.858;25.974;2023-03-14T06:15:56;101222.47;;;11.37;31.55
42169;BME280;27838;43.858;25.974;2023-03-14T06:18:23;101222.47;;;11.34;30.59
42169;BME280;27838;43.858;25.974;2023-03-14T06:20:53;101223.34;;;11.41;30.44
42169;BME280;27838;43.858;25.974;2023-03-14T06:23:20;101223.44;;;11.51;30.63
42169;BME280;27838;43.858;25.974;2023-03-14T06:25:46;101224.31;;;11.63;30.46
42169;BME280;27838;43.858;25.974;2023-03-14T06:28:13;101227.84;;;11.69;30.40
42169;BME280;27838;43.858;25.974;2023-03-14T06:30:40;101228.69;;;11.67;30.87
42169;BME280;27838;43.858;25.974;2023-03-14T06:33:06;101212.16;;;11.74;30.84
42169;BME280;27838;43.858;25.974;2023-03-14T06:35:33;101219.22;;;11.90;30.68
42169;BME280;27838;43.858;25.974;2023-03-14T06:37:59;101216.63;;;12.03;30.73
42169;BME280;27838;43.858;25.974;2023-03-14T06:40:26;101226.25;;;12.13;30.37
42169;BME280;27838;43.858;25.974;2023-03-14T06:42:53;101225.41;;;12.25;30.42
42169;BME280;27838;43.858;25.974;2023-03-14T06:45:19;101237.56;;;12.35;31.69
42169;BME280;27838;43.858;25.974;2023-03-14T06:47:46;101237.59;;;12.46;33.94
42169;BME280;27838;43.858;25.974;2023-03-14T06:50:12;101238.44;;;12.22;35.70
42169;BME280;27838;43.858;25.974;2023-03-14T06:52:39;101236.59;;;11.88;36.30
42169;BME280;27838;43.858;25.974;2023-03-14T06:55:07;101243.47;;;11.59;36.62
42169;BME280;27838;43.858;25.974;2023-03-14T06:57:33;101234.66;;;11.37;36.40
42169;BME280;27838;43.858;25.974;2023-03-14T07:00:00;101229.34;;;11.20;36.84
42169;BME280;27838;43.858;25.974;2023-03-14T07:02:26;101225.88;;;11.19;36.38
42169;BME280;27838;43.858;25.974;2023-03-14T07:04:53;101217.19;;;11.25;36.06
42169;BME280;27838;43.858;25.974;2023-03-14T07:07:19;101209.47;;;11.43;36.01
42169;BME280;27838;43.858;25.974;2023-03-14T07:09:46;101208.59;;;11.43;35.58
42169;BME280;27838;43.858;25.974;2023-03-14T07:12:13;101199.00;;;11.40;35.76
42169;BME280;27838;43.858;25.974;2023-03-14T07:14:39;101199.84;;;11.33;35.93
42169;BME280;27838;43.858;25.974;2023-03-14T07:17:06;101193.81;;;11.43;36.08
42169;BME280;27838;43.858;25.974;2023-03-14T07:19:32;101196.47;;;11.62;36.46
42169;BME280;27838;43.858;25.974;2023-03-14T07:21:59;101196.53;;;11.80;36.63
42169;BME280;27838;43.858;25.974;2023-03-14T07:24:26;101191.38;;;11.96;36.56
42169;BME280;27838;43.858;25.974;2023-03-14T07:26:52;101185.28;;;12.03;36.41
42169;BME280;27838;43.858;25.974;2023-03-14T07:29:19;101188.78;;;12.05;36.75
42169;BME280;27838;43.858;25.974;2023-03-14T07:31:45;101184.41;;;11.99;37.09
42169;BME280;27838;43.858;25.974;2023-03-14T07:34:12;101183.53;;;11.94;37.52
42169;BME280;27838;43.858;25.974;2023-03-14T07:36:38;101185.28;;;11.90;37.44
42169;BME280;27838;43.858;25.974;2023-03-14T07:39:05;101193.03;;;11.83;37.57
42169;BME280;27838;43.858;25.974;2023-03-14T07:41:32;101193.03;;;11.84;37.02
42169;BME280;27838;43.858;25.974;2023-03-14T07:43:59;101192.19;;;11.88;36.84
42169;BME280;27838;43.858;25.974;2023-03-14T07:46:25;101185.28;;;11.92;36.20
42169;BME280;27838;43.858;25.974;2023-03-14T07:48:52;101187.91;;;12.03;35.80
42169;BME280;27838;43.858;25.974;2023-03-14T07:51:18;101186.16;;;12.14;34.96
42169;BME280;27838;43.858;25.974;2023-03-14T07:53:45;101180.06;;;12.12;34.88
42169;BME280;27838;43.858;25.974;2023-03-14T07:56:11;101175.72;;;12.22;35.05
42169;BME280;27838;43.858;25.974;2023-03-14T07:58:38;101176.59;;;12.33;34.92
42169;BME280;27838;43.858;25.974;2023-03-14T08:01:05;101170.47;;;12.39;34.71
42169;BME280;27838;43.858;25.974;2023-03-14T08:03:31;101178.31;;;12.54;35.13
42169;BME280;27838;43.858;25.974;2023-03-14T08:05:58;101173.06;;;12.74;35.47
42169;BME280;27838;43.858;25.974;2023-03-14T08:08:24;101175.63;;;12.94;34.64
42169;BME280;27838;43.858;25.974;2023-03-14T08:10:51;101176.50;;;13.01;34.46
42169;BME280;27838;43.858;25.974;2023-03-14T08:13:17;101165.13;;;13.07;33.92
42169;BME280;27838;43.858;25.974;2023-03-14T08:15:47;101156.38;;;13.15;33.78
42169;BME280;27838;43.858;25.974;2023-03-14T08:18:14;101154.59;;;13.27;33.45
42169;BME280;27838;43.858;25.974;2023-03-14T08:20:41;101153.69;;;13.45;33.66
42169;BME280;27838;43.858;25.974;2023-03-14T08:23:07;101149.19;;;13.68;33.30
42169;BME280;27838;43.858;25.974;2023-03-14T08:25:34;101145.50;;;13.94;32.22
42169;BME280;27838;43.858;25.974;2023-03-14T08:28:00;101142.75;;;14.12;32.24
42169;BME280;27838;43.858;25.974;2023-03-14T08:30:27;101145.22;;;14.31;32.28
42169;BME280;27838;43.858;25.974;2023-03-14T08:32:56;101138.97;;;14.46;31.82
42169;BME280;27838;43.858;25.974;2023-03-14T08:35:23;101137.16;;;14.54;31.47
42169;BME280;27838;43.858;25.974;2023-03-14T08:37:50;101131.81;;;14.65;30.65
42169;BME280;27838;43.858;25.974;2023-03-14T08:40:17;101133.47;;;14.75;30.72
42169;BME280;27838;43.858;25.974;2023-03-14T08:42:45;101125.38;;;14.94;31.52
42169;BME280;27838;43.858;25.974;2023-03-14T08:45:13;101123.38;;;15.14;30.85
42169;BME280;27838;43.858;25.974;2023-03-14T08:47:41;101117.94;;;15.29;30.20
42169;BME280;27838;43.858;25.974;2023-03-14T08:50:08;101115.09;;;15.46;30.17
42169;BME280;27838;43.858;25.974;2023-03-14T08:52:35;101108.78;;;15.58;30.18
42169;BME280;27838;43.858;25.974;2023-03-14T08:55:03;101104.16;;;15.76;29.43
42169;BME280;27838;43.858;25.974;2023-03-14T08:57:30;101097.84;;;15.88;28.65
42169;BME280;27838;43.858;25.974;2023-03-14T08:59:57;101089.91;;;15.92;29.33
42169;BME280;27838;43.858;25.974;2023-03-14T09:02:25;101086.38;;;15.92;29.18
42169;BME280;27838;43.858;25.974;2023-03-14T09:04:52;101090.78;;;15.93;28.80
42169;BME280;27838;43.858;25.974;2023-03-14T09:07:19;101085.66;;;15.85;28.57
42169;BME280;27838;43.858;25.974;2023-03-14T09:09:46;101076.06;;;15.81;28.53
42169;BME280;27838;43.858;25.974;2023-03-14T09:12:12;101075.19;;;15.80;29.22
42169;BME280;27838;43.858;25.974;2023-03-14T09:14:39;101062.94;;;15.79;28.75
42169;BME280;27838;43.858;25.974;2023-03-14T09:17:06;101054.00;;;15.90;28.26
42169;BME280;27838;43.858;25.974;2023-03-14T09:19:33;101051.09;;;16.07;28.19
42169;BME280;27838;43.858;25.974;2023-03-14T09:21:59;101051.53;;;16.30;27.98
42169;BME280;27838;43.858;25.974;2023-03-14T09:24:26;101044.19;;;16.48;27.62
42169;BME280;27838;43.858;25.974;2023-03-14T09:26:52;101041.47;;;16.54;27.59
42169;BME280;27838;43.858;25.974;2023-03-14T09:29:20;101038.06;;;16.47;27.63
42169;BME280;27838;43.858;25.974;2023-03-14T09:31:47;101025.63;;;16.55;28.07
42169;BME280;27838;43.858;25.974;2023-03-14T09:34:13;101026.09;;;16.77;27.39
42169;BME280;27838;43.858;25.974;2023-03-14T09:36:40;101019.00;;;16.81;27.20
42169;BME280;27838;43.858;25.974;2023-03-14T09:39:09;101015.13;;;16.99;27.38
42169;BME280;27838;43.858;25.974;2023-03-14T09:41:39;101002.44;;;17.16;27.19
42169;BME280;27838;43.858;25.974;2023-03-14T09:44:21;101015.25;;;17.32;26.58
42169;BME280;27838;43.858;25.974;2023-03-14T09:46:53;101004.97;;;17.21;25.92
42169;BME280;27838;43.858;25.974;2023-03-14T09:49:25;100996.13;;;17.24;26.59
42169;BME280;27838;43.858;25.974;2023-03-14T09:51:55;100993.19;;;17.36;26.56
42169;BME280;27838;43.858;25.974;2023-03-14T09:54:35;100993.34;;;17.66;26.04
42169;BME280;27838;43.858;25.974;2023-03-14T09:57:05;100988.41;;;17.89;26.35
42169;BME280;27838;43.858;25.974;2023-03-14T09:59:33;100981.56;;;18.14;25.86
42169;BME280;27838;43.858;25.974;2023-03-14T10:02:04;100975.13;;;18.24;25.70
42169;BME280;27838;43.858;25.974;2023-03-14T10:04:39;100966.06;;;18.34;25.10
42169;BME280;27838;43.858;25.974;2023-03-14T10:07:23;100964.38;;;18.32;24.73
42169;BME280;27838;43.858;25.974;2023-03-14T10:09:51;100950.41;;;17.97;25.42
42169;BME280;27838;43.858;25.974;2023-03-14T10:12:18;100949.41;;;18.01;25.73
42169;BME280;27838;43.858;25.974;2023-03-14T10:14:52;100945.69;;;18.08;25.12
42169;BME280;27838;43.858;25.974;2023-03-14T10:17:20;100940.25;;;18.14;25.42
42169;BME280;27838;43.858;25.974;2023-03-14T10:19:56;100943.34;;;18.28;25.26
42169;BME280;27838;43.858;25.974;2023-03-14T10:22:29;100929.78;;;18.42;24.35
42169;BME280;27838;43.858;25.974;2023-03-14T10:25:01;100937.19;;;18.59;23.82
42169;BME280;27838;43.858;25.974;2023-03-14T10:27:30;100925.59;;;18.65;23.45
42169;BME280;27838;43.858;25.974;2023-03-14T10:30:03;100929.00;;;18.68;23.40
42169;BME280;27838;43.858;25.974;2023-03-14T10:32:37;100918.94;;;18.80;23.82
42169;BME280;27838;43.858;25.974;2023-03-14T10:35:17;100916.28;;;19.10;23.84
42169;BME280;27838;43.858;25.974;2023-03-14T10:40:18;100893.38;;;19.62;22.65
42169;BME280;27838;43.858;25.974;2023-03-14T10:42:45;100888.94;;;19.89;22.00
42169;BME280;27838;43.858;25.974;2023-03-14T10:45:40;100880.16;;;20.12;22.43
42169;BME280;27838;43.858;25.974;2023-03-14T10:53:26;100857.06;;;20.16;21.00
42169;BME280;27838;43.858;25.974;2023-03-14T10:55:55;100852.19;;;20.29;21.73
42169;BME280;27838;43.858;25.974;2023-03-14T10:58:27;100831.19;;;20.24;20.78
42169;BME280;27838;43.858;25.974;2023-03-14T11:04:02;100821.72;;;20.18;21.44
42169;BME280;27838;43.858;25.974;2023-03-14T11:11:48;100815.16;;;20.29;21.58
42169;BME280;27838;43.858;25.974;2023-03-14T11:14:20;100813.03;;;20.37;21.71
42169;BME280;27838;43.858;25.974;2023-03-14T11:17:20;100812.69;;;20.46;21.27
42169;BME280;27838;43.858;25.974;2023-03-14T11:20:18;100791.31;;;20.51;21.60
42169;BME280;27838;43.858;25.974;2023-03-14T11:25:44;100775.25;;;20.55;21.03
42169;BME280;27838;43.858;25.974;2023-03-14T11:28:23;100758.41;;;20.56;21.59
42169;BME280;27838;43.858;25.974;2023-03-14T11:31:39;100759.94;;;20.64;20.82
42169;BME280;27838;43.858;25.974;2023-03-14T11:33:56;100752.84;;;20.64;20.16
42169;BME280;27838;43.858;25.974;2023-03-14T11:36:34;100742.81;;;20.72;19.95
42169;BME280;27838;43.858;25.974;2023-03-14T11:39:10;100737.31;;;20.77;20.13
42169;BME280;27838;43.858;25.974;2023-03-14T11:41:40;100715.13;;;20.80;19.87
42169;BME280;27838;43.858;25.974;2023-03-14T11:44:18;100717.19;;;20.93;19.48
42169;BME280;27838;43.858;25.974;2023-03-14T11:49:30;100694.69;;;21.04;18.81
42169;BME280;27838;43.858;25.974;2023-03-14T11:52:05;100683.53;;;21.16;18.82
42169;BME280;27838;43.858;25.974;2023-03-14T11:54:43;100677.22;;;21.19;19.04
42169;BME280;27838;43.858;25.974;2023-03-14T11:57:15;100668.91;;;21.07;18.57
42169;BME280;27838;43.858;25.974;2023-03-14T11:59:55;100664.28;;;20.92;18.36
42169;BME280;27838;43.858;25.974;2023-03-14T12:10:43;100633.88;;;21.01;19.33
42169;BME280;27838;43.858;25.974;2023-03-14T12:13:13;100638.59;;;21.13;19.16
42169;BME280;27838;43.858;25.974;2023-03-14T12:15:46;100631.06;;;21.23;15.12
42169;BME280;27838;43.858;25.974;2023-03-14T12:18:20;100635.59;;;21.40;15.39
42169;BME280;27838;43.858;25.974;2023-03-14T12:21:04;100624.19;;;21.58;14.76
42169;BME280;27838;43.858;25.974;2023-03-14T12:28:44;100604.34;;;21.84;12.73
42169;BME280;27838;43.858;25.974;2023-03-14T12:31:45;100602.66;;;22.01;12.70
42169;BME280;27838;43.858;25.974;2023-03-14T12:39:47;100600.47;;;22.09;12.27
42169;BME280;27838;43.858;25.974;2023-03-14T12:45:27;100588.84;;;22.12;14.29
42169;BME280;27838;43.858;25.974;2023-03-14T12:50:44;100582.84;;;22.08;13.06
42169;BME280;27838;43.858;25.974;2023-03-14T12:54:34;100574.72;;;22.11;13.01
42169;BME280;27838;43.858;25.974;2023-03-14T12:56:32;100573.16;;;22.07;12.20
42169;BME280;27838;43.858;25.974;2023-03-14T13:01:33;100552.00;;;21.88;12.04
42169;BME280;27838;43.858;25.974;2023-03-14T13:04:11;100538.81;;;21.86;12.36
42169;BME280;27838;43.858;25.974;2023-03-14T13:11:58;100528.91;;;22.08;12.25
42169;BME280;27838;43.858;25.974;2023-03-14T13:14:28;100533.09;;;22.12;12.54
42169;BME280;27838;43.858;25.974;2023-03-14T13:16:55;100529.44;;;21.97;12.89
42169;BME280;27838;43.858;25.974;2023-03-14T13:19:30;100520.72;;;21.95;13.06
42169;BME280;27838;43.858;25.974;2023-03-14T13:22:06;100513.53;;;21.97;13.01
42169;BME280;27838;43.858;25.974;2023-03-14T13:24:41;100506.97;;;22.04;13.25
42169;BME280;27838;43.858;25.974;2023-03-14T13:27:19;100508.28;;;22.13;13.19
42169;BME280;27838;43.858;25.974;2023-03-14T13:29:50;100504.22;;;22.23;12.91
42169;BME280;27838;43.858;25.974;2023-03-14T13:32:21;100502.22;;;22.11;12.96
42169;BME280;27838;43.858;25.974;2023-03-14T13:34:47;100495.03;;;21.95;13.17
42169;BME280;27838;43.858;25.974;2023-03-14T13:37:19;100482.69;;;21.94;13.42
42169;BME280;27838;43.858;25.974;2023-03-14T13:39:54;100468.81;;;21.72;13.39
42169;BME280;27838;43.858;25.974;2023-03-14T13:42:25;100464.13;;;21.77;13.81
42169;BME280;27838;43.858;25.974;2023-03-14T13:44:54;100474.09;;;21.54;13.87
42169;BME280;27838;43.858;25.974;2023-03-14T13:47:24;100456.47;;;21.53;13.97
42169;BME280;27838;43.858;25.974;2023-03-14T13:49:52;100452.81;;;21.56;14.06
42169;BME280;27838;43.858;25.974;2023-03-14T13:52:31;100456.16;;;21.59;14.24